createdAt,value
2023-01-02T00:02:06.657Z,57.50
2023-01-02T00:04:34.155Z,57.10
2023-01-02T00:07:01.355Z,56.19
2023-01-02T00:09:28.632Z,56.03
2023-01-02T00:11:57.707Z,55.56
2023-01-02T00:14:24.958Z,55.78
2023-01-02T00:16:52.139Z,56.89
2023-01-02T00:19:19.790Z,59.20
2023-01-02T00:21:46.980Z,57.94
2023-01-02T00:24:14.145Z,58.30
2023-01-02T00:26:41.683Z,57.70
2023-01-02T00:29:08.874Z,60.25
2023-01-02T00:31:36.977Z,62.30
2023-01-02T00:34:04.554Z,59.58
2023-01-02T00:36:31.786Z,57.54
2023-01-02T00:38:58.994Z,58.75
2023-01-02T00:41:26.452Z,57.54
2023-01-02T00:43:53.645Z,56.64
2023-01-02T00:46:20.943Z,56.64
2023-01-02T00:48:48.482Z,58.51
2023-01-02T00:51:15.747Z,57.29
2023-01-02T00:53:42.893Z,56.98
2023-01-02T00:56:11.280Z,56.16
2023-01-02T00:58:38.489Z,56.19
2023-01-02T01:01:05.977Z,55.73
2023-01-02T01:03:33.508Z,55.35
2023-01-02T01:06:05.720Z,55.38
2023-01-02T01:08:34.062Z,54.53
2023-01-02T01:11:05.493Z,54.23
2023-01-02T01:13:32.684Z,54.29
2023-01-02T01:16:04.022Z,53.92
2023-01-02T01:18:33.058Z,53.53
2023-01-02T01:21:05.431Z,53.44
2023-01-02T01:23:32.918Z,52.86
2023-01-02T01:26:03.175Z,52.65
2023-01-02T01:28:30.392Z,52.43
2023-01-02T01:31:08.786Z,53.00
2023-01-02T01:33:36.120Z,53.01
2023-01-02T01:36:10.360Z,52.96
2023-01-02T01:38:37.539Z,53.38
2023-01-02T01:41:05.272Z,52.95
2023-01-02T01:43:35.541Z,54.30
2023-01-02T01:46:03.386Z,55.64
2023-01-02T01:48:30.894Z,55.55
2023-01-02T01:50:58.272Z,54.96
2023-01-02T01:53:25.471Z,54.43
2023-01-02T01:55:54.153Z,54.33
2023-01-02T01:58:22.495Z,54.83
2023-01-02T02:00:49.741Z,53.55
2023-01-02T02:03:18.801Z,56.24
2023-01-02T02:05:46.300Z,57.55
2023-01-02T02:08:15.871Z,59.10
2023-01-02T02:10:43.035Z,60.23
2023-01-02T02:13:10.568Z,60.02
2023-01-02T02:15:57.948Z,57.80
2023-01-02T02:18:25.330Z,58.54
2023-01-02T02:21:01.267Z,60.09
2023-01-02T02:23:28.708Z,58.38
2023-01-02T02:25:59.283Z,58.92
2023-01-02T02:28:38.124Z,64.62
2023-01-02T02:31:11.666Z,62.03
2023-01-02T02:33:46.134Z,63.06
2023-01-02T02:36:16.786Z,64.25
2023-01-02T02:38:48.164Z,60.75
2023-01-02T02:41:15.599Z,60.97
2023-01-02T02:43:51.650Z,60.94
2023-01-02T02:46:20.164Z,60.27
2023-01-02T02:49:03.941Z,60.49
2023-01-02T02:51:35.473Z,60.55
2023-01-02T02:54:08.529Z,59.77
2023-01-02T02:56:36.017Z,60.65
2023-01-02T02:59:03.206Z,60.77
2023-01-02T03:01:31.233Z,60.96
2023-01-02T03:03:58.898Z,60.63
2023-01-02T03:06:36.279Z,60.45
2023-01-02T03:09:11.369Z,59.96
2023-01-02T03:11:57.294Z,61.60
2023-01-02T03:14:29.240Z,60.25
2023-01-02T03:17:04.042Z,59.58
2023-01-02T03:19:42.440Z,59.42
2023-01-02T03:22:14.171Z,59.80
2023-01-02T03:24:41.728Z,59.84
2023-01-02T03:27:10.078Z,61.87
2023-01-02T03:29:41.654Z,62.60
2023-01-02T03:32:33.823Z,61.01
2023-01-02T03:35:01.444Z,61.12
2023-01-02T03:37:29.677Z,61.48
2023-01-02T03:39:58.233Z,60.71
2023-01-02T03:42:26.609Z,65.50
2023-01-02T03:45:10.033Z,62.36
2023-01-02T03:47:53.064Z,63.99
2023-01-02T03:50:25.266Z,66.09
2023-01-02T03:52:52.454Z,66.47
2023-01-02T03:55:19.649Z,65.62
2023-01-02T03:57:57.414Z,65.23
2023-01-02T04:00:25.584Z,65.46
2023-01-02T04:02:53.165Z,67.53
2023-01-02T04:05:20.343Z,67.15
2023-01-02T04:08:19.723Z,70.50
2023-01-02T04:10:47.283Z,67.00
2023-01-02T04:13:19.795Z,66.73
2023-01-02T04:15:47.631Z,67.75
2023-01-02T04:18:27.704Z,67.46
2023-01-02T04:20:56.285Z,68.28
2023-01-02T04:23:34.032Z,68.96
2023-01-02T04:26:03.219Z,69.95
2023-01-02T04:28:30.832Z,68.80
2023-01-02T04:31:00.681Z,69.18
2023-01-02T04:33:28.251Z,73.70
2023-01-02T04:35:55.392Z,70.62
2023-01-02T04:38:22.831Z,67.87
2023-01-02T04:40:50.321Z,68.90
2023-01-02T04:43:19.559Z,68.93
2023-01-02T04:45:47.588Z,67.70
2023-01-02T04:48:15.563Z,68.17
2023-01-02T04:50:43.183Z,69.58
2023-01-02T04:53:10.973Z,70.33
2023-01-02T04:55:38.500Z,68.01
2023-01-02T04:58:05.915Z,68.57
2023-01-02T05:00:33.274Z,68.70
2023-01-02T05:03:03.810Z,67.45
2023-01-02T05:05:31.102Z,67.91
2023-01-02T05:07:59.217Z,68.94
2023-01-02T05:10:26.650Z,69.75
2023-01-02T05:12:53.929Z,66.36
2023-01-02T05:15:21.990Z,68.21
2023-01-02T05:17:49.681Z,69.42
2023-01-02T05:20:16.823Z,66.31
2023-01-02T05:23:03.058Z,65.88
2023-01-02T05:25:34.237Z,66.65
2023-01-02T05:28:02.275Z,74.75
2023-01-02T05:30:29.403Z,69.21
2023-01-02T05:32:57.046Z,69.72
2023-01-02T05:35:30.201Z,67.79
2023-01-02T05:37:59.812Z,68.42
2023-01-02T05:40:27.087Z,67.13
2023-01-02T05:42:54.427Z,66.70
2023-01-02T05:45:22.108Z,67.65
2023-01-02T05:47:49.395Z,69.69
2023-01-02T05:50:16.653Z,67.77
2023-01-02T05:52:46.042Z,68.66
2023-01-02T05:55:13.564Z,67.02
2023-01-02T05:57:42.205Z,68.42
2023-01-02T06:00:09.999Z,67.51
2023-01-02T06:02:42.052Z,71.29
2023-01-02T06:05:11.685Z,72.94
2023-01-02T06:07:38.888Z,73.44
2023-01-02T06:10:06.311Z,73.26
2023-01-02T06:12:33.795Z,74.43
2023-01-02T06:15:01.023Z,70.08
2023-01-02T06:17:28.248Z,72.35
2023-01-02T06:19:55.658Z,71.02
2023-01-02T06:22:22.877Z,72.59
2023-01-02T06:24:50.072Z,69.34
2023-01-02T06:27:17.590Z,69.43
2023-01-02T06:29:44.821Z,68.65
2023-01-02T06:32:12.018Z,71.02
2023-01-02T06:34:39.566Z,69.24
2023-01-02T06:37:10.099Z,67.81
2023-01-02T06:39:38.807Z,67.81
2023-01-02T06:42:06.291Z,70.30
2023-01-02T06:44:33.645Z,71.06
2023-01-02T06:47:00.861Z,70.25
2023-01-02T06:49:28.347Z,69.69
2023-01-02T06:51:55.571Z,67.42
2023-01-02T06:54:22.844Z,72.11
2023-01-02T06:56:50.830Z,67.49
2023-01-02T06:59:18.103Z,67.99
2023-01-02T07:01:45.468Z,65.77
2023-01-02T07:04:16.672Z,70.85
2023-01-02T07:06:43.867Z,71.10
2023-01-02T07:09:11.117Z,72.71
2023-01-02T07:11:38.546Z,71.53
2023-01-02T07:14:05.832Z,68.82
2023-01-02T07:16:33.134Z,68.39
2023-01-02T07:19:00.602Z,68.53
2023-01-02T07:21:27.797Z,67.67
2023-01-02T07:23:55.005Z,66.32
2023-01-02T07:26:22.598Z,69.64
2023-01-02T07:28:49.820Z,67.67
2023-01-02T07:31:17.928Z,69.14
2023-01-02T07:33:45.945Z,65.48
2023-01-02T07:36:16.980Z,67.85
2023-01-02T07:38:44.207Z,66.06
2023-01-02T07:41:15.671Z,65.24
2023-01-02T07:43:43.460Z,64.86
2023-01-02T07:46:10.794Z,63.99
2023-01-02T07:48:38.294Z,65.92
2023-01-02T07:51:05.846Z,64.79
2023-01-02T07:53:33.247Z,64.46
2023-01-02T07:56:00.880Z,65.11
2023-01-02T07:58:28.328Z,65.53
2023-01-02T08:00:59.702Z,67.27
2023-01-02T08:03:31.021Z,69.08
2023-01-02T08:06:05.124Z,70.01
2023-01-02T08:08:32.712Z,67.59
2023-01-02T08:11:03.258Z,68.77
2023-01-02T08:13:30.435Z,69.23
2023-01-02T08:15:57.959Z,69.85
2023-01-02T08:18:25.133Z,67.12
2023-01-02T08:20:52.336Z,66.92
2023-01-02T08:23:19.818Z,65.46
2023-01-02T08:25:46.996Z,66.08
2023-01-02T08:28:14.159Z,66.19
2023-01-02T08:30:41.625Z,69.51
2023-01-02T08:33:08.860Z,66.74
2023-01-02T08:35:38.915Z,67.58
2023-01-02T08:38:06.726Z,67.92
2023-01-02T08:40:34.023Z,66.20
2023-01-02T08:43:01.181Z,68.83
2023-01-02T08:45:28.695Z,66.14
2023-01-02T08:47:55.832Z,66.10
2023-01-02T08:50:23.072Z,65.15
2023-01-02T08:52:50.604Z,65.94
2023-01-02T08:55:17.796Z,65.26
2023-01-02T08:57:45.018Z,64.67
2023-01-02T09:00:12.567Z,67.94
2023-01-02T09:02:39.951Z,69.18
2023-01-02T09:05:07.321Z,69.78
2023-01-02T09:07:34.832Z,65.70
2023-01-02T09:10:02.037Z,66.60
2023-01-02T09:12:29.248Z,67.60
2023-01-02T09:14:56.671Z,70.71
2023-01-02T09:17:23.868Z,72.34
2023-01-02T09:19:51.060Z,75.04
2023-01-02T09:22:18.544Z,71.64
2023-01-02T09:24:45.743Z,69.63
2023-01-02T09:27:12.898Z,71.73
2023-01-02T09:29:40.417Z,72.07
2023-01-02T09:32:07.559Z,70.16
2023-01-02T09:34:34.841Z,67.33
2023-01-02T09:37:02.318Z,68.80
2023-01-02T09:39:32.799Z,68.62
2023-01-02T09:42:00.286Z,68.02
2023-01-02T09:44:27.659Z,71.67
2023-01-02T09:46:56.766Z,69.41
2023-01-02T09:49:24.857Z,69.05
2023-01-02T09:51:52.317Z,67.86
2023-01-02T09:54:19.748Z,71.08
2023-01-02T09:56:47.834Z,69.51
2023-01-02T09:59:15.266Z,72.31
2023-01-02T10:02:01.284Z,72.10
2023-01-02T10:04:34.682Z,73.04
2023-01-02T10:07:20.035Z,71.86
2023-01-02T10:10:07.759Z,68.51
2023-01-02T10:12:53.547Z,68.71
2023-01-02T10:15:23.279Z,69.49
2023-01-02T10:17:50.648Z,69.70
2023-01-02T10:20:24.022Z,69.10
2023-01-02T10:22:53.758Z,67.85
2023-01-02T10:25:28.870Z,67.72
2023-01-02T10:28:07.256Z,68.48
2023-01-02T10:30:36.466Z,67.80
2023-01-02T10:33:26.316Z,66.78
2023-01-02T10:35:54.778Z,68.81
2023-01-02T10:38:22.292Z,66.54
2023-01-02T10:40:50.280Z,67.05
2023-01-02T10:43:17.897Z,67.24
2023-01-02T10:45:45.551Z,66.51
2023-01-02T10:48:12.847Z,66.06
2023-01-02T10:50:42.074Z,67.87
2023-01-02T10:53:22.924Z,66.39
2023-01-02T10:55:50.135Z,66.83
2023-01-02T10:58:20.589Z,67.99
2023-01-02T11:00:48.561Z,67.82
2023-01-02T11:03:16.851Z,68.51
2023-01-02T11:05:45.427Z,67.77
2023-01-02T11:08:16.823Z,70.43
2023-01-02T11:10:44.440Z,67.83
2023-01-02T11:13:16.200Z,66.76
2023-01-02T11:15:48.277Z,65.50
2023-01-02T11:18:20.152Z,66.14
2023-01-02T11:20:49.341Z,64.72
2023-01-02T11:23:16.946Z,64.07
2023-01-02T11:25:44.126Z,66.33
2023-01-02T11:28:15.780Z,64.97
2023-01-02T11:30:46.938Z,65.21
2023-01-02T11:33:14.408Z,64.85
2023-01-02T11:35:47.854Z,65.37
2023-01-02T11:38:29.144Z,64.72
2023-01-02T11:40:59.088Z,64.62
2023-01-02T11:43:48.730Z,63.25
2023-01-02T11:46:22.130Z,63.64
2023-01-02T11:48:49.641Z,61.26
2023-01-02T11:51:17.799Z,62.00
2023-01-02T11:53:47.977Z,61.63
2023-01-02T11:56:18.070Z,62.81
2023-01-02T11:58:51.221Z,61.83
2023-01-02T12:01:21.191Z,61.77
2023-01-02T12:03:48.723Z,62.08
2023-01-02T12:06:16.007Z,61.83
2023-01-02T12:08:52.389Z,60.03
2023-01-02T12:11:28.897Z,62.05
2023-01-02T12:14:14.775Z,61.57
2023-01-02T12:16:42.280Z,59.66
2023-01-02T12:19:13.339Z,59.33
2023-01-02T12:21:43.535Z,58.77
2023-01-02T12:24:11.005Z,59.10
2023-01-02T12:26:56.836Z,59.47
2023-01-02T12:29:46.422Z,60.20
2023-01-02T12:32:26.051Z,60.95
2023-01-02T12:35:12.357Z,63.15
2023-01-02T12:37:42.737Z,62.07
2023-01-02T12:40:19.611Z,62.82
2023-01-02T12:43:02.121Z,60.98
2023-01-02T12:45:38.618Z,61.37
2023-01-02T12:48:26.094Z,62.16
2023-01-02T12:51:20.223Z,60.94
2023-01-02T12:54:18.737Z,60.44
2023-01-02T12:56:49.213Z,60.78
2023-01-02T12:59:16.348Z,61.44
2023-01-02T13:01:48.624Z,62.19
2023-01-02T13:04:15.859Z,61.78
2023-01-02T13:06:47.099Z,60.61
2023-01-02T13:09:22.438Z,61.15
2023-01-02T13:11:52.239Z,62.23
2023-01-02T13:14:20.418Z,61.67
2023-01-02T13:16:50.396Z,61.39
2023-01-02T13:19:37.893Z,61.09
2023-01-02T13:22:16.865Z,60.53
2023-01-02T13:24:44.075Z,60.49
2023-01-02T13:27:11.647Z,59.32
2023-01-02T13:29:45.497Z,59.73
2023-01-02T13:32:13.545Z,60.58
2023-01-02T13:34:48.199Z,59.93
2023-01-02T13:37:16.226Z,60.57
2023-01-02T13:39:43.517Z,60.06
2023-01-02T13:42:37.912Z,59.28
2023-01-02T13:45:09.845Z,60.33
2023-01-02T13:47:37.789Z,59.70
2023-01-02T13:50:08.910Z,59.37
2023-01-02T13:52:36.456Z,59.42
2023-01-02T13:55:21.214Z,58.14
2023-01-02T13:58:08.655Z,57.61
2023-01-02T14:00:36.572Z,57.32
2023-01-02T14:03:28.176Z,57.04
2023-01-02T14:05:58.835Z,56.96
2023-01-02T14:08:29.326Z,56.58
2023-01-02T14:10:57.721Z,59.43
2023-01-02T14:13:29.704Z,57.38
2023-01-02T14:16:06.221Z,58.21
2023-01-02T14:18:33.428Z,57.27
2023-01-02T14:21:01.130Z,57.92
2023-01-02T14:23:29.892Z,58.35
2023-01-02T14:25:57.123Z,56.65
2023-01-02T14:28:28.562Z,56.98
2023-01-02T14:30:55.855Z,58.12
2023-01-02T14:33:35.841Z,57.50
2023-01-02T14:36:07.160Z,59.92
2023-01-02T14:38:38.850Z,59.23
2023-01-02T14:41:29.014Z,62.17
2023-01-02T14:43:56.351Z,61.73
2023-01-02T14:46:26.882Z,62.55
2023-01-02T14:49:24.842Z,62.97
2023-01-02T14:51:57.978Z,62.87
2023-01-02T14:54:30.270Z,66.42
2023-01-02T14:56:58.369Z,67.62
2023-01-02T14:59:26.183Z,64.02
2023-01-02T15:01:55.475Z,65.52
2023-01-02T15:04:23.929Z,63.41
2023-01-02T15:07:09.768Z,61.96
2023-01-02T15:09:38.216Z,61.14
2023-01-02T15:12:37.770Z,61.50
2023-01-02T15:15:05.524Z,63.44
2023-01-02T15:17:32.782Z,63.08
2023-01-02T15:20:01.006Z,62.65
2023-01-02T15:22:30.244Z,64.68
2023-01-02T15:24:57.408Z,64.55
2023-01-02T15:27:28.846Z,65.56
2023-01-02T15:30:00.374Z,62.34
2023-01-02T15:32:29.046Z,65.32
2023-01-02T15:35:28.493Z,65.44
2023-01-02T15:37:55.750Z,61.54
2023-01-02T15:40:23.147Z,61.03
2023-01-02T15:43:08.946Z,61.29
2023-01-02T15:45:36.503Z,60.28
2023-01-02T15:48:03.989Z,63.68
2023-01-02T15:50:31.334Z,63.13
2023-01-02T15:52:58.758Z,61.24
2023-01-02T15:55:35.378Z,61.61
2023-01-02T15:58:17.233Z,59.63
2023-01-02T16:00:45.036Z,59.35
2023-01-02T16:03:17.263Z,60.08
2023-01-02T16:05:44.623Z,59.81
2023-01-02T16:08:17.187Z,59.83
2023-01-02T16:10:50.599Z,59.16
2023-01-02T16:13:38.193Z,62.45
2023-01-02T16:16:16.736Z,63.16
2023-01-02T16:18:45.388Z,62.63
2023-01-02T16:21:13.573Z,61.41
2023-01-02T16:23:40.786Z,61.22
2023-01-02T16:26:09.840Z,60.38
2023-01-02T16:28:37.610Z,59.06
2023-01-02T16:31:14.765Z,60.78
2023-01-02T16:33:42.810Z,64.31
2023-01-02T16:36:18.120Z,62.29
2023-01-02T16:38:57.887Z,62.35
2023-01-02T16:41:37.154Z,61.36
2023-01-02T16:44:12.374Z,62.38
2023-01-02T16:46:57.659Z,61.68
2023-01-02T16:49:25.167Z,60.69
2023-01-02T16:51:52.998Z,60.42
2023-01-02T16:54:20.479Z,60.85
2023-01-02T16:56:47.989Z,61.17
2023-01-02T16:59:15.336Z,60.00
2023-01-02T17:01:42.687Z,61.23
2023-01-02T17:04:13.556Z,63.56
2023-01-02T17:06:40.770Z,62.39
2023-01-02T17:09:08.079Z,60.80
2023-01-02T17:11:35.558Z,61.72
2023-01-02T17:14:02.764Z,61.44
2023-01-02T17:16:29.990Z,62.00
2023-01-02T17:18:57.512Z,61.20
2023-01-02T17:21:29.307Z,60.61
2023-01-02T17:24:00.125Z,60.12
2023-01-02T17:26:27.349Z,59.69
2023-01-02T17:28:54.500Z,59.74
2023-01-02T17:31:25.723Z,59.50
2023-01-02T17:33:53.526Z,59.98
2023-01-02T17:36:20.733Z,59.74
2023-01-02T17:38:48.291Z,59.25
2023-01-02T17:41:15.494Z,58.94
2023-01-02T17:44:01.278Z,60.21
2023-01-02T17:47:04.293Z,60.73
2023-01-02T17:49:18.022Z,60.26
2023-01-02T17:51:45.808Z,59.44
2023-01-02T17:54:13.424Z,59.47
2023-01-02T17:56:42.056Z,59.63
2023-01-02T17:59:09.631Z,59.64
2023-01-02T18:01:36.878Z,59.86
2023-01-02T18:04:04.516Z,59.43
2023-01-02T18:06:31.800Z,59.53
2023-01-02T18:08:58.975Z,59.90
2023-01-02T18:11:26.500Z,60.40
2023-01-02T18:13:54.736Z,59.84
2023-01-02T18:16:23.094Z,61.64
2023-01-02T18:18:51.127Z,61.11
2023-01-02T18:21:20.307Z,61.22
2023-01-02T18:23:57.122Z,60.40
2023-01-02T18:26:24.999Z,60.58
2023-01-02T18:28:57.057Z,60.92
2023-01-02T18:31:25.152Z,60.26
2023-01-02T18:33:54.435Z,60.49
2023-01-02T18:36:22.634Z,61.08
2023-01-02T18:38:51.021Z,60.83
2023-01-02T18:41:25.508Z,60.91
2023-01-02T18:43:56.794Z,61.87
2023-01-02T18:47:03.927Z,62.89
2023-01-02T18:49:30.677Z,61.80
2023-01-02T18:52:02.693Z,64.04
2023-01-02T18:54:31.235Z,63.81
2023-01-02T18:57:01.989Z,63.90
2023-01-02T18:59:31.418Z,61.57
2023-01-02T19:02:02.394Z,61.97
2023-01-02T19:04:35.434Z,62.79
2023-01-02T19:07:22.943Z,61.48
2023-01-02T19:09:50.503Z,62.74
2023-01-02T19:12:43.606Z,63.54
2023-01-02T19:15:23.402Z,63.89
2023-01-02T19:17:51.812Z,66.22
2023-01-02T19:20:26.295Z,65.36
2023-01-02T19:22:53.663Z,64.43
2023-01-02T19:25:22.513Z,63.84
2023-01-02T19:27:49.662Z,63.61
2023-01-02T19:30:23.612Z,65.00
2023-01-02T19:32:51.113Z,65.30
2023-01-02T19:35:24.465Z,63.74
2023-01-02T19:37:51.984Z,63.89
2023-01-02T19:40:23.156Z,62.97
2023-01-02T19:42:51.192Z,67.46
2023-01-02T19:45:20.016Z,65.44
2023-01-02T19:47:47.718Z,63.94
2023-01-02T19:50:16.315Z,64.37
2023-01-02T19:52:43.901Z,64.53
2023-01-02T19:55:11.348Z,64.27
2023-01-02T19:57:38.883Z,63.22
2023-01-02T20:00:08.587Z,62.56
2023-01-02T20:02:39.365Z,63.06
2023-01-02T20:05:07.289Z,63.55
2023-01-02T20:07:34.617Z,63.05
2023-01-02T20:10:02.044Z,63.34
2023-01-02T20:12:30.481Z,62.74
2023-01-02T20:14:58.205Z,62.28
2023-01-02T20:17:25.495Z,63.18
2023-01-02T20:19:52.976Z,62.30
2023-01-02T20:22:20.157Z,61.46
2023-01-02T20:24:47.487Z,61.60
2023-01-02T20:27:15.798Z,61.17
2023-01-02T20:29:43.314Z,60.66
2023-01-02T20:32:11.139Z,60.45
2023-01-02T20:34:38.751Z,60.42
2023-01-02T20:37:06.194Z,61.54
2023-01-02T20:39:33.540Z,62.34
2023-01-02T20:42:01.080Z,62.30
2023-01-02T20:44:28.522Z,60.73
2023-01-02T20:46:56.400Z,60.29
2023-01-02T20:49:28.323Z,60.96
2023-01-02T20:51:56.018Z,61.33
2023-01-02T20:54:26.125Z,60.99
2023-01-02T20:56:53.852Z,60.86
2023-01-02T20:59:21.514Z,61.01
2023-01-02T21:01:49.292Z,60.83
2023-01-02T21:04:22.554Z,60.17
2023-01-02T21:06:55.533Z,60.62
2023-01-02T21:09:22.735Z,60.12
2023-01-02T21:11:50.116Z,59.71
2023-01-02T21:14:17.775Z,59.25
2023-01-02T21:16:45.042Z,59.04
2023-01-02T21:19:12.586Z,58.18
2023-01-02T21:21:40.437Z,58.47
2023-01-02T21:24:07.756Z,58.85
2023-01-02T21:26:35.019Z,58.79
2023-01-02T21:29:03.153Z,57.75
2023-01-02T21:31:30.347Z,57.53
2023-01-02T21:33:57.644Z,57.47
2023-01-02T21:36:25.592Z,56.99
2023-01-02T21:38:52.871Z,55.97
2023-01-02T21:41:38.577Z,56.66
2023-01-02T21:44:06.100Z,57.89
2023-01-02T21:46:33.345Z,56.33
2023-01-02T21:49:00.805Z,56.11
2023-01-02T21:51:32.775Z,57.94
2023-01-02T21:54:00.848Z,57.35
2023-01-02T21:56:28.812Z,57.09
2023-01-02T21:58:57.756Z,56.10
2023-01-02T22:01:25.130Z,57.49
2023-01-02T22:03:57.015Z,57.18
2023-01-02T22:06:24.347Z,56.25
2023-01-02T22:08:51.613Z,56.03
2023-01-02T22:11:37.732Z,56.01
2023-01-02T22:14:05.759Z,55.98
2023-01-02T22:16:33.447Z,56.90
2023-01-02T22:19:00.676Z,56.94
2023-01-02T22:21:27.877Z,56.76
2023-01-02T22:23:55.380Z,56.21
2023-01-02T22:26:22.825Z,55.62
2023-01-02T22:28:50.031Z,56.91
2023-01-02T22:31:17.550Z,57.19
2023-01-02T22:33:44.787Z,56.23
2023-01-02T22:36:11.970Z,56.57
2023-01-02T22:38:55.156Z,55.93
2023-01-02T22:41:26.592Z,57.19
2023-01-02T22:43:54.108Z,58.19
2023-01-02T22:46:22.805Z,57.00
2023-01-02T22:48:50.123Z,57.07
2023-01-02T22:51:22.836Z,56.10
2023-01-02T22:53:58.365Z,56.71
2023-01-02T22:56:25.841Z,56.00
2023-01-02T22:58:53.107Z,55.74
2023-01-02T23:01:33.605Z,55.14
2023-01-02T23:04:01.118Z,56.50
2023-01-02T23:06:28.718Z,55.27
2023-01-02T23:08:55.924Z,54.68
2023-01-02T23:11:23.520Z,55.85
2023-01-02T23:13:56.365Z,54.85
2023-01-02T23:16:43.017Z,54.31
2023-01-02T23:19:16.045Z,53.96
2023-01-02T23:21:44.300Z,54.20
2023-01-02T23:24:12.411Z,54.31
2023-01-02T23:26:43.919Z,54.67
2023-01-02T23:29:11.849Z,55.38
2023-01-02T23:31:40.325Z,56.18
2023-01-02T23:34:08.379Z,55.40
2023-01-02T23:36:36.020Z,54.77
2023-01-02T23:39:04.394Z,55.50
2023-01-02T23:41:31.579Z,55.78
2023-01-02T23:43:58.988Z,55.32
2023-01-02T23:46:26.390Z,53.92
2023-01-02T23:48:53.707Z,53.56
2023-01-02T23:51:21.212Z,53.64
2023-01-02T23:53:48.387Z,53.87
2023-01-02T23:56:20.354Z,55.26
2023-01-02T23:58:48.051Z,54.25
